createdAt,value
2023-04-25T00:01:48.993Z,73.85
2023-04-25T00:04:16.056Z,73.58
2023-04-25T00:06:42.709Z,73.34
2023-04-25T00:09:10.979Z,72.03
2023-04-25T00:11:38.034Z,72.62
2023-04-25T00:14:05.269Z,72.81
2023-04-25T00:16:35.017Z,72.52
2023-04-25T00:19:03.988Z,72.12
2023-04-25T00:21:32.536Z,72.63
2023-04-25T00:23:59.078Z,72.68
2023-04-25T00:26:26.282Z,72.52
2023-04-25T00:28:52.853Z,72.49
2023-04-25T00:31:19.388Z,72.10
2023-04-25T00:33:45.882Z,73.23
2023-04-25T00:36:12.322Z,73.73
2023-04-25T00:38:39.293Z,73.67
2023-04-25T00:41:08.047Z,72.93
2023-04-25T00:43:34.949Z,74.00
2023-04-25T00:46:02.080Z,73.52
2023-04-25T00:48:28.833Z,74.32
2023-04-25T00:50:57.913Z,74.66
2023-04-25T00:53:26.379Z,75.08
2023-04-25T00:55:53.865Z,74.93
2023-04-25T00:58:21.683Z,75.81
2023-04-25T01:00:51.085Z,75.86
2023-04-25T01:03:21.410Z,76.26
2023-04-25T01:05:49.141Z,76.41
2023-04-25T01:08:16.048Z,76.97
2023-04-25T01:10:42.781Z,77.32
2023-04-25T01:13:09.488Z,77.32
2023-04-25T01:15:37.024Z,77.78
2023-04-25T01:18:06.369Z,77.92
2023-04-25T01:20:34.210Z,78.21
2023-04-25T01:23:03.029Z,78.72
2023-04-25T01:25:30.614Z,79.15
2023-04-25T01:27:58.128Z,79.43
2023-04-25T01:30:26.850Z,79.64
2023-04-25T01:32:55.964Z,79.98
2023-04-25T01:35:24.800Z,80.07
2023-04-25T01:37:52.079Z,81.22
2023-04-25T01:40:19.676Z,80.64
2023-04-25T01:42:46.967Z,80.70
2023-04-25T01:45:13.759Z,80.61
2023-04-25T01:47:41.201Z,80.74
2023-04-25T01:50:09.015Z,81.66
2023-04-25T01:52:36.032Z,80.81
2023-04-25T01:55:03.269Z,82.05
2023-04-25T01:57:29.931Z,82.26
2023-04-25T02:00:00.290Z,83.02
2023-04-25T02:02:27.826Z,82.97
2023-04-25T02:04:55.437Z,82.83
2023-04-25T02:07:22.122Z,82.68
2023-04-25T02:09:49.016Z,82.54
2023-04-25T02:12:15.514Z,82.27
2023-04-25T02:14:45.435Z,79.38
2023-04-25T02:17:13.612Z,79.52
2023-04-25T02:19:40.869Z,79.53
2023-04-25T02:22:07.514Z,79.84
2023-04-25T02:24:34.888Z,80.58
2023-04-25T02:27:01.838Z,79.90
2023-04-25T02:29:28.566Z,80.13
2023-04-25T02:31:55.350Z,80.52
2023-04-25T02:34:22.073Z,81.16
2023-04-25T02:36:50.498Z,81.39
2023-04-25T02:39:17.283Z,81.84
2023-04-25T02:41:43.836Z,81.26
2023-04-25T02:44:10.745Z,82.86
2023-04-25T02:46:39.324Z,81.30
2023-04-25T02:49:07.422Z,82.20
2023-04-25T02:51:34.014Z,82.71
2023-04-25T02:54:02.642Z,83.06
2023-04-25T02:56:29.298Z,82.96
2023-04-25T02:58:56.015Z,82.66
2023-04-25T03:01:22.549Z,83.19
2023-04-25T03:03:49.507Z,84.16
2023-04-25T03:06:16.809Z,84.04
2023-04-25T03:08:43.838Z,84.20
2023-04-25T03:11:10.585Z,83.86
2023-04-25T03:13:37.262Z,83.79
2023-04-25T03:16:03.898Z,82.30
2023-04-25T03:18:32.605Z,82.55
2023-04-25T03:20:59.114Z,83.03
2023-04-25T03:23:25.649Z,83.49
2023-04-25T03:25:52.166Z,83.86
2023-04-25T03:28:19.008Z,84.38
2023-04-25T03:30:45.358Z,84.58
2023-04-25T03:33:11.819Z,84.63
2023-04-25T03:35:38.359Z,85.37
2023-04-25T03:38:04.769Z,85.86
2023-04-25T03:40:31.336Z,85.66
2023-04-25T03:42:58.045Z,86.46
2023-04-25T03:45:25.198Z,86.45
2023-04-25T03:47:51.598Z,86.68
2023-04-25T03:50:18.076Z,87.15
2023-04-25T03:52:44.687Z,87.54
2023-04-25T03:55:11.845Z,87.95
2023-04-25T03:57:38.328Z,87.80
2023-04-25T04:00:05.588Z,87.77
2023-04-25T04:02:32.344Z,87.70
2023-04-25T04:04:59.238Z,88.88
2023-04-25T04:07:25.848Z,88.42
2023-04-25T04:09:52.301Z,87.09
2023-04-25T04:12:18.833Z,87.42
2023-04-25T04:14:45.357Z,87.16
2023-04-25T04:17:11.866Z,87.02
2023-04-25T04:19:38.338Z,86.45
2023-04-25T04:22:05.911Z,86.31
2023-04-25T04:24:32.290Z,85.91
2023-04-25T04:26:58.788Z,86.02
2023-04-25T04:29:25.755Z,86.21
2023-04-25T04:31:53.639Z,85.80
2023-04-25T04:34:20.313Z,85.46
2023-04-25T04:36:47.228Z,85.90
2023-04-25T04:39:14.281Z,85.14
2023-04-25T04:41:40.889Z,84.26
2023-04-25T04:44:11.056Z,84.19
2023-04-25T04:46:43.192Z,84.37
2023-04-25T04:49:10.727Z,84.71
2023-04-25T04:51:38.566Z,84.09
2023-04-25T04:54:05.447Z,83.02
2023-04-25T04:56:34.055Z,82.29
2023-04-25T04:59:11.728Z,82.52
2023-04-25T05:01:47.836Z,80.64
2023-04-25T05:04:14.604Z,81.06
2023-04-25T05:06:41.513Z,81.36
2023-04-25T05:09:08.021Z,80.19
2023-04-25T05:11:34.372Z,78.81
2023-04-25T05:14:00.877Z,73.26
2023-04-25T05:16:27.309Z,70.38
2023-04-25T05:18:53.671Z,69.07
2023-04-25T05:21:20.427Z,66.64
2023-04-25T05:23:46.869Z,66.36
2023-04-25T05:26:14.960Z,64.51
2023-04-25T05:28:43.629Z,64.07
2023-04-25T05:31:11.327Z,62.59
2023-04-25T05:33:37.795Z,60.34
2023-04-25T05:36:04.523Z,58.17
2023-04-25T05:38:33.275Z,57.07
2023-04-25T05:41:01.452Z,56.49
2023-04-25T05:43:27.892Z,54.59
2023-04-25T05:45:54.343Z,54.25
2023-04-25T05:48:20.825Z,54.39
2023-04-25T05:50:47.551Z,54.48
2023-04-25T05:53:14.074Z,56.40
2023-04-25T05:55:40.584Z,54.33
2023-04-25T05:58:08.187Z,55.63
2023-04-25T06:00:34.788Z,52.12
2023-04-25T06:03:02.264Z,50.48
2023-04-25T06:05:30.144Z,47.95
2023-04-25T06:07:56.827Z,48.46
2023-04-25T06:10:23.652Z,48.52
2023-04-25T06:12:50.263Z,45.20
2023-04-25T06:15:28.214Z,41.98
2023-04-25T06:17:55.972Z,41.71
2023-04-25T06:20:25.016Z,43.02
2023-04-25T06:22:52.797Z,42.06
2023-04-25T06:25:19.438Z,40.67
2023-04-25T06:27:45.969Z,39.66
2023-04-25T06:30:13.190Z,38.00
2023-04-25T06:32:40.029Z,37.26
2023-04-25T06:35:07.102Z,34.71
2023-04-25T06:37:33.478Z,35.65
2023-04-25T06:39:59.927Z,35.84
2023-04-25T06:42:26.297Z,36.10
2023-04-25T06:44:53.202Z,35.17
2023-04-25T06:47:19.784Z,35.45
2023-04-25T06:49:46.256Z,35.49
2023-04-25T06:52:12.800Z,37.44
2023-04-25T06:54:39.225Z,36.21
2023-04-25T06:57:06.067Z,35.64
2023-04-25T06:59:33.744Z,34.91
2023-04-25T07:02:00.626Z,35.38
2023-04-25T07:04:27.343Z,34.29
2023-04-25T07:06:53.860Z,34.89
2023-04-25T07:09:20.660Z,33.95
2023-04-25T07:11:47.146Z,34.04
2023-04-25T07:14:13.548Z,36.07
2023-04-25T07:16:40.779Z,36.70
2023-04-25T07:19:07.404Z,37.43
2023-04-25T07:21:33.850Z,36.74
2023-04-25T07:24:00.441Z,34.02
2023-04-25T07:26:26.862Z,33.25
2023-04-25T07:28:53.355Z,33.15
2023-04-25T07:31:19.799Z,32.10
2023-04-25T07:33:46.819Z,32.02
2023-04-25T07:36:13.902Z,32.25
2023-04-25T07:38:40.506Z,33.31
2023-04-25T07:41:07.084Z,32.16
2023-04-25T07:43:33.771Z,34.31
2023-04-25T07:46:00.221Z,34.49
2023-04-25T07:48:26.782Z,36.76
2023-04-25T07:50:53.202Z,37.21
2023-04-25T07:53:19.941Z,36.87
2023-04-25T07:55:46.294Z,38.98
2023-04-25T07:58:12.827Z,38.76
2023-04-25T08:00:39.650Z,40.20
2023-04-25T08:03:07.369Z,41.14
2023-04-25T08:05:34.166Z,39.69
2023-04-25T08:08:03.112Z,37.81
2023-04-25T08:10:29.547Z,41.36
2023-04-25T08:12:55.989Z,42.61
2023-04-25T08:15:22.479Z,43.36
2023-04-25T08:17:48.959Z,44.04
2023-04-25T08:20:15.417Z,45.38
2023-04-25T08:22:42.013Z,45.78
2023-04-25T08:25:08.781Z,46.04
2023-04-25T08:27:35.790Z,46.65
2023-04-25T08:30:04.110Z,47.22
2023-04-25T08:32:31.112Z,46.83
2023-04-25T08:34:57.843Z,47.03
2023-04-25T08:37:24.366Z,47.00
2023-04-25T08:39:53.513Z,47.46
2023-04-25T08:42:22.639Z,47.46
2023-04-25T08:44:49.847Z,47.76
2023-04-25T08:47:16.974Z,48.15
2023-04-25T08:49:46.914Z,46.48
2023-04-25T08:52:14.151Z,45.79
2023-04-25T08:54:45.094Z,45.54
2023-04-25T08:57:13.115Z,44.61
2023-04-25T08:59:40.555Z,44.59
2023-04-25T09:02:10.170Z,45.68
2023-04-25T09:04:37.067Z,45.94
2023-04-25T09:07:04.198Z,45.88
2023-04-25T09:09:30.620Z,47.82
2023-04-25T09:11:57.653Z,48.67
2023-04-25T09:14:26.648Z,48.44
2023-04-25T09:16:56.194Z,45.80
2023-04-25T09:19:38.017Z,46.14
2023-04-25T09:22:06.305Z,46.07
2023-04-25T09:24:39.479Z,47.67
2023-04-25T09:27:12.958Z,49.42
2023-04-25T09:29:41.920Z,48.80
2023-04-25T09:32:13.042Z,49.55
2023-04-25T09:34:53.428Z,50.71
2023-04-25T09:37:26.714Z,52.24
2023-04-25T09:40:00.085Z,53.17
2023-04-25T09:42:28.457Z,53.20
2023-04-25T09:44:55.900Z,52.32
2023-04-25T09:47:24.785Z,53.01
2023-04-25T09:49:52.517Z,52.19
2023-04-25T09:52:21.651Z,52.25
2023-04-25T09:54:50.714Z,52.31
2023-04-25T09:57:27.008Z,51.34
2023-04-25T09:59:55.601Z,49.52
2023-04-25T10:02:25.018Z,49.66
2023-04-25T10:04:55.477Z,48.41
2023-04-25T10:07:27.638Z,47.36
2023-04-25T10:10:05.107Z,46.58
2023-04-25T10:12:32.328Z,46.71
2023-04-25T10:14:59.735Z,48.07
2023-04-25T10:17:29.041Z,47.16
2023-04-25T10:19:56.032Z,47.12
2023-04-25T10:22:39.965Z,48.27
2023-04-25T10:29:01.956Z,49.51
2023-04-25T10:31:30.591Z,48.85
2023-04-25T10:33:58.034Z,48.58
2023-04-25T10:36:28.399Z,49.73
2023-04-25T10:38:55.469Z,50.47
2023-04-25T10:41:23.739Z,48.84
2023-04-25T10:43:52.355Z,48.12
2023-04-25T10:46:23.003Z,50.77
2023-04-25T10:48:53.580Z,50.72
2023-04-25T10:54:20.966Z,51.43
2023-04-25T10:56:49.391Z,52.62
2023-04-25T10:59:22.431Z,54.64
2023-04-25T11:01:53.912Z,54.45
2023-04-25T11:04:22.845Z,55.01
2023-04-25T11:09:48.769Z,57.11
2023-04-25T11:12:17.309Z,59.09
2023-04-25T11:14:37.860Z,56.69
2023-04-25T11:14:43.972Z,60.38
2023-04-25T11:17:11.543Z,60.31
2023-04-25T11:19:38.115Z,60.08
2023-04-25T11:22:04.724Z,62.61
2023-04-25T11:24:38.094Z,63.37
2023-04-25T11:27:05.482Z,59.00
2023-04-25T11:29:33.833Z,56.46
2023-04-25T11:32:01.907Z,53.37
2023-04-25T11:34:31.667Z,51.75
2023-04-25T11:36:58.438Z,51.68
2023-04-25T11:39:25.901Z,53.36
2023-04-25T11:41:53.402Z,51.36
2023-04-25T11:44:20.619Z,50.08
2023-04-25T11:46:47.481Z,49.03
2023-04-25T11:49:15.080Z,48.72
2023-04-25T11:51:47.877Z,47.46
2023-04-25T11:54:15.308Z,47.81
2023-04-25T11:56:46.225Z,47.58
2023-04-25T11:59:13.886Z,46.56
2023-04-25T12:01:50.621Z,47.33
2023-04-25T12:04:19.599Z,46.58
2023-04-25T12:06:50.321Z,46.40
2023-04-25T12:09:19.518Z,48.16
2023-04-25T12:11:53.893Z,49.77
2023-04-25T12:14:34.462Z,50.63
2023-04-25T12:17:03.023Z,52.41
2023-04-25T12:19:36.924Z,51.70
2023-04-25T12:22:04.828Z,51.15
2023-04-25T12:24:35.909Z,50.51
2023-04-25T12:27:10.847Z,50.08
2023-04-25T12:32:07.050Z,50.87
2023-04-25T12:34:36.838Z,49.63
2023-04-25T12:37:03.308Z,48.71
2023-04-25T12:39:30.234Z,48.04
2023-04-25T12:41:56.649Z,46.44
2023-04-25T12:44:23.391Z,46.82
2023-04-25T12:46:49.966Z,45.49
2023-04-25T12:49:19.172Z,45.12
2023-04-25T12:51:46.001Z,45.69
2023-04-25T12:54:12.432Z,46.02
2023-04-25T12:56:38.804Z,46.02
2023-04-25T12:59:05.297Z,46.15
2023-04-25T13:01:34.690Z,45.99
2023-04-25T13:04:02.929Z,47.25
2023-04-25T13:06:31.322Z,48.42
2023-04-25T13:08:57.806Z,49.23
2023-04-25T13:11:24.213Z,50.42
2023-04-25T13:13:50.871Z,51.47
2023-04-25T13:16:17.850Z,51.78
2023-04-25T13:18:44.273Z,51.36
2023-04-25T13:21:12.453Z,53.06
2023-04-25T13:23:39.045Z,54.05
2023-04-25T13:26:05.627Z,54.60
2023-04-25T13:28:32.813Z,53.79
2023-04-25T13:31:00.462Z,54.29
2023-04-25T13:33:26.999Z,53.28
2023-04-25T13:35:58.105Z,52.88
2023-04-25T13:38:26.235Z,52.87
2023-04-25T13:40:53.708Z,53.69
2023-04-25T13:43:23.562Z,52.37
2023-04-25T13:45:51.254Z,53.44
2023-04-25T13:48:18.610Z,53.02
2023-04-25T13:50:45.176Z,53.05
2023-04-25T13:53:11.655Z,52.69
2023-04-25T13:55:38.435Z,51.52
2023-04-25T13:58:08.515Z,51.56
2023-04-25T14:00:37.870Z,51.52
2023-04-25T14:03:06.020Z,52.94
2023-04-25T14:05:32.598Z,50.76
2023-04-25T14:08:00.422Z,49.69
2023-04-25T14:10:28.712Z,49.49
2023-04-25T14:12:55.132Z,49.62
2023-04-25T14:15:21.733Z,48.86
2023-04-25T14:17:49.349Z,48.35
2023-04-25T14:20:16.348Z,48.99
2023-04-25T14:22:44.936Z,48.68
2023-04-25T14:25:12.868Z,48.71
2023-04-25T14:27:39.488Z,47.14
2023-04-25T14:30:07.673Z,46.33
2023-04-25T14:32:34.162Z,46.24
2023-04-25T14:35:00.814Z,46.52
2023-04-25T14:37:27.275Z,44.76
2023-04-25T14:39:53.632Z,44.77
2023-04-25T14:42:20.347Z,46.33
2023-04-25T14:44:47.259Z,46.10
2023-04-25T14:47:14.029Z,46.57
2023-04-25T14:49:43.362Z,47.13
2023-04-25T14:52:09.812Z,47.25
2023-04-25T14:54:36.294Z,48.18
2023-04-25T14:57:03.206Z,46.26
2023-04-25T14:59:29.680Z,46.77
2023-04-25T15:01:59.478Z,44.67
2023-04-25T15:04:26.849Z,43.42
2023-04-25T15:06:53.922Z,44.93
2023-04-25T15:09:24.121Z,43.95
2023-04-25T15:11:53.662Z,43.82
2023-04-25T15:14:43.560Z,43.75
2023-04-25T15:17:11.215Z,44.26
2023-04-25T15:19:37.696Z,44.21
2023-04-25T15:22:06.797Z,45.55
2023-04-25T15:24:33.467Z,45.36
2023-04-25T15:26:59.928Z,44.28
2023-04-25T15:29:27.243Z,46.21
2023-04-25T15:31:54.055Z,45.44
2023-04-25T15:34:20.518Z,45.75
2023-04-25T15:36:46.930Z,46.55
2023-04-25T15:39:13.419Z,46.60
2023-04-25T15:41:39.959Z,47.01
2023-04-25T15:44:07.923Z,46.86
2023-04-25T15:46:34.440Z,46.73
2023-04-25T15:49:01.015Z,46.65
2023-04-25T15:51:28.138Z,46.08
2023-04-25T15:53:54.773Z,48.06
2023-04-25T15:56:21.402Z,47.53
2023-04-25T15:58:48.255Z,46.31
2023-04-25T16:01:15.049Z,47.76
2023-04-25T16:03:41.713Z,46.38
2023-04-25T16:06:08.269Z,46.05
2023-04-25T16:08:35.835Z,46.69
2023-04-25T16:11:03.185Z,45.74
2023-04-25T16:13:30.085Z,45.18
2023-04-25T16:15:56.768Z,46.59
2023-04-25T16:18:23.282Z,45.60
2023-04-25T16:20:49.724Z,45.43
2023-04-25T16:23:16.238Z,45.71
2023-04-25T16:25:43.265Z,45.62
2023-04-25T16:28:09.888Z,44.42
2023-04-25T16:30:36.761Z,41.41
2023-04-25T16:33:03.228Z,40.08
2023-04-25T16:35:32.921Z,41.09
2023-04-25T16:37:59.519Z,40.79
2023-04-25T16:40:26.805Z,40.87
2023-04-25T16:42:53.327Z,40.24
2023-04-25T16:45:21.496Z,39.49
2023-04-25T16:47:47.980Z,40.91
2023-04-25T16:50:15.105Z,40.94
2023-04-25T16:52:43.081Z,42.10
2023-04-25T16:55:11.741Z,43.35
2023-04-25T16:57:38.303Z,43.85
2023-04-25T17:00:06.159Z,42.77
2023-04-25T17:02:33.038Z,43.89
2023-04-25T17:04:59.641Z,45.02
2023-04-25T17:07:26.654Z,44.44
2023-04-25T17:09:53.301Z,45.17
2023-04-25T17:12:20.006Z,45.68
2023-04-25T17:14:46.716Z,45.33
2023-04-25T17:17:13.410Z,44.81
2023-04-25T17:19:39.937Z,44.13
2023-04-25T17:22:07.036Z,46.23
2023-04-25T17:24:33.459Z,44.23
2023-04-25T17:26:59.910Z,44.89
2023-04-25T17:29:27.672Z,45.45
2023-04-25T17:31:54.309Z,44.96
2023-04-25T17:34:20.967Z,44.79
2023-04-25T17:36:48.374Z,46.54
2023-04-25T17:39:17.170Z,46.54
2023-04-25T17:41:44.494Z,47.45
2023-04-25T17:44:11.369Z,46.53
2023-04-25T17:46:38.042Z,48.07
2023-04-25T17:49:04.716Z,49.41
2023-04-25T17:51:31.679Z,48.00
2023-04-25T17:53:58.151Z,48.83
2023-04-25T17:56:27.268Z,48.27
2023-04-25T17:58:54.860Z,47.87
2023-04-25T18:01:22.674Z,47.95
2023-04-25T18:03:50.234Z,49.62
2023-04-25T18:06:17.840Z,48.28
2023-04-25T18:08:44.758Z,49.01
2023-04-25T18:11:12.061Z,49.48
2023-04-25T18:13:39.400Z,49.36
2023-04-25T18:16:06.437Z,49.04
2023-04-25T18:18:34.588Z,49.53
2023-04-25T18:21:03.887Z,50.25
2023-04-25T18:23:32.420Z,50.80
2023-04-25T18:25:59.109Z,49.60
2023-04-25T18:28:25.656Z,50.34
2023-04-25T18:30:52.085Z,51.24
2023-04-25T18:33:18.480Z,49.93
2023-04-25T18:35:55.348Z,50.24
2023-04-25T18:38:35.595Z,51.23
2023-04-25T18:41:18.319Z,51.63
2023-04-25T18:43:49.594Z,51.10
2023-04-25T18:46:17.533Z,51.68
2023-04-25T18:48:44.364Z,52.17
2023-04-25T18:51:11.086Z,53.05
2023-04-25T18:53:37.984Z,53.58
2023-04-25T18:56:04.664Z,55.34
2023-04-25T18:58:31.526Z,54.78
2023-04-25T19:00:58.153Z,55.73
2023-04-25T19:03:24.731Z,55.08
2023-04-25T19:05:51.876Z,57.45
2023-04-25T19:08:20.520Z,56.85
2023-04-25T19:10:47.294Z,57.08
2023-04-25T19:13:14.222Z,57.68
2023-04-25T19:15:40.664Z,58.01
2023-04-25T19:18:07.499Z,59.61
2023-04-25T19:20:34.122Z,58.93
2023-04-25T19:23:00.957Z,60.01
2023-04-25T19:25:27.724Z,60.67
2023-04-25T19:27:54.618Z,60.17
2023-04-25T19:30:24.450Z,61.06
2023-04-25T19:32:50.999Z,62.65
2023-04-25T19:35:18.077Z,62.11
2023-04-25T19:37:46.930Z,62.75
2023-04-25T19:40:18.002Z,61.77
2023-04-25T19:42:44.979Z,63.23
2023-04-25T19:45:12.041Z,63.05
2023-04-25T19:47:38.741Z,63.11
2023-04-25T19:50:09.470Z,64.03
2023-04-25T19:52:36.806Z,65.04
2023-04-25T19:55:05.042Z,64.66
2023-04-25T19:57:37.736Z,64.41
2023-04-25T20:00:08.817Z,65.41
2023-04-25T20:02:35.417Z,65.69
2023-04-25T20:05:02.252Z,65.35
2023-04-25T20:07:29.546Z,65.18
2023-04-25T20:09:56.435Z,65.57
2023-04-25T20:12:22.873Z,64.27
2023-04-25T20:14:49.439Z,65.35
2023-04-25T20:17:16.077Z,65.77
2023-04-25T20:19:42.533Z,66.14
2023-04-25T20:22:08.976Z,65.48
2023-04-25T20:24:35.429Z,65.51
2023-04-25T20:27:02.831Z,65.81
2023-04-25T20:29:29.252Z,65.92
2023-04-25T20:31:55.792Z,65.49
2023-04-25T20:34:22.755Z,65.76
2023-04-25T20:36:49.215Z,66.61
2023-04-25T20:39:15.679Z,66.21
2023-04-25T20:41:42.698Z,65.42
2023-04-25T20:44:09.537Z,66.20
2023-04-25T20:46:36.328Z,66.94
2023-04-25T20:49:05.092Z,65.84
2023-04-25T20:51:32.486Z,66.69
2023-04-25T20:54:00.144Z,65.87
2023-04-25T20:56:26.780Z,65.96
2023-04-25T20:58:53.939Z,65.86
2023-04-25T21:01:20.812Z,66.18
2023-04-25T21:03:50.083Z,65.91
2023-04-25T21:06:17.423Z,65.24
2023-04-25T21:08:44.316Z,64.34
2023-04-25T21:11:11.805Z,64.76
2023-04-25T21:13:38.419Z,64.86
2023-04-25T21:16:05.504Z,64.35
2023-04-25T21:18:32.137Z,64.26
2023-04-25T21:20:58.732Z,63.40
2023-04-25T21:23:25.249Z,62.83
2023-04-25T21:25:54.121Z,63.12
2023-04-25T21:28:20.898Z,63.30
2023-04-25T21:30:47.472Z,63.43
2023-04-25T21:33:14.207Z,62.85
2023-04-25T21:35:40.716Z,62.96
2023-04-25T21:38:07.857Z,62.33
2023-04-25T21:40:34.851Z,62.72
2023-04-25T21:43:01.875Z,63.61
2023-04-25T21:45:31.743Z,62.32
2023-04-25T21:47:58.545Z,62.64
2023-04-25T21:50:24.987Z,62.17
2023-04-25T21:52:51.808Z,62.26
2023-04-25T21:55:26.547Z,61.67
2023-04-25T21:57:53.730Z,61.08
2023-04-25T22:00:21.910Z,61.15
2023-04-25T22:02:48.858Z,60.72
2023-04-25T22:05:15.558Z,62.15
2023-04-25T22:07:44.195Z,61.51
2023-04-25T22:10:11.041Z,61.65
2023-04-25T22:12:38.621Z,61.99
2023-04-25T22:15:05.669Z,61.63
2023-04-25T22:17:33.101Z,61.59
2023-04-25T22:19:59.689Z,60.66
2023-04-25T22:22:26.428Z,61.91
2023-04-25T22:24:52.846Z,61.56
2023-04-25T22:27:19.257Z,60.75
2023-04-25T22:29:45.838Z,61.77
2023-04-25T22:32:12.378Z,61.41
2023-04-25T22:34:38.784Z,62.24
2023-04-25T22:37:05.322Z,62.82
2023-04-25T22:39:31.843Z,62.65
2023-04-25T22:41:58.408Z,62.89
2023-04-25T22:44:24.828Z,61.67
2023-04-25T22:46:51.623Z,61.96
2023-04-25T22:49:18.093Z,61.36
2023-04-25T22:51:44.560Z,60.89
2023-04-25T22:54:11.091Z,62.46
2023-04-25T22:56:37.888Z,62.43
2023-04-25T22:59:04.580Z,63.58
2023-04-25T23:01:31.731Z,63.62
2023-04-25T23:03:58.541Z,64.63
2023-04-25T23:06:25.270Z,65.07
2023-04-25T23:08:52.353Z,65.28
2023-04-25T23:11:20.335Z,65.56
2023-04-25T23:13:47.051Z,66.29
2023-04-25T23:16:13.971Z,65.93
2023-04-25T23:18:41.182Z,66.23
2023-04-25T23:21:09.185Z,66.59
2023-04-25T23:23:36.934Z,66.19
2023-04-25T23:26:22.375Z,66.69
2023-04-25T23:28:49.223Z,66.84
2023-04-25T23:31:16.118Z,66.60
2023-04-25T23:33:42.957Z,66.78
2023-04-25T23:36:19.910Z,66.78
2023-04-25T23:38:47.459Z,66.36
2023-04-25T23:41:14.755Z,66.47
2023-04-25T23:43:42.235Z,66.97
2023-04-25T23:46:09.580Z,66.39
2023-04-25T23:48:36.526Z,66.90
2023-04-25T23:51:03.373Z,67.54
2023-04-25T23:53:30.228Z,66.89
2023-04-25T23:55:56.773Z,66.73
2023-04-25T23:58:23.280Z,66.66
